sensor_id;sensor_type;location;lat;lon;timestamp;temperature;humidity
44817;DHT22;30529;53.570;9.964;2023-01-28T00:02:07;3.40;99.90
44817;DHT22;30529;53.570;9.964;2023-01-28T00:04:33;3.50;99.90
44817;DHT22;30529;53.570;9.964;2023-01-28T00:06:59;3.50;99.90
44817;DHT22;30529;53.570;9.964;2023-01-28T00:09:25;3.60;99.90
44817;DHT22;30529;53.570;9.964;2023-01-28T00:11:51;3.60;99.90
44817;DHT22;30529;53.570;9.964;2023-01-28T00:14:17;3.70;99.90
44817;DHT22;30529;53.570;9.964;2023-01-28T00:16:44;3.70;99.90
44817;DHT22;30529;53.570;9.964;2023-01-28T00:19:11;3.60;99.90
44817;DHT22;30529;53.570;9.964;2023-01-28T00:21:37;3.60;99.90
44817;DHT22;30529;53.570;9.964;2023-01-28T00:24:03;3.60;99.90
44817;DHT22;30529;53.570;9.964;2023-01-28T00:26:31;3.60;99.90
44817;DHT22;30529;53.570;9.964;2023-01-28T00:28:57;3.60;99.90
44817;DHT22;30529;53.570;9.964;2023-01-28T00:31:24;3.60;99.90
44817;DHT22;30529;53.570;9.964;2023-01-28T00:33:52;3.60;99.90
44817;DHT22;30529;53.570;9.964;2023-01-28T00:36:21;3.60;99.90
44817;DHT22;30529;53.570;9.964;2023-01-28T00:38:51;3.60;99.90
44817;DHT22;30529;53.570;9.964;2023-01-28T00:41:19;3.60;99.90
44817;DHT22;30529;53.570;9.964;2023-01-28T00:43:48;3.60;99.90
44817;DHT22;30529;53.570;9.964;2023-01-28T00:46:15;3.60;99.90
44817;DHT22;30529;53.570;9.964;2023-01-28T00:48:42;3.60;99.90
44817;DHT22;30529;53.570;9.964;2023-01-28T00:51:09;3.60;99.90
44817;DHT22;30529;53.570;9.964;2023-01-28T00:53:36;3.60;99.90
44817;DHT22;30529;53.570;9.964;2023-01-28T00:56:04;3.50;99.90
44817;DHT22;30529;53.570;9.964;2023-01-28T00:58:31;3.50;99.90
44817;DHT22;30529;53.570;9.964;2023-01-28T01:01:20;3.40;99.90
44817;DHT22;30529;53.570;9.964;2023-01-28T01:03:46;3.30;99.90
44817;DHT22;30529;53.570;9.964;2023-01-28T01:06:14;3.30;99.90
44817;DHT22;30529;53.570;9.964;2023-01-28T01:08:40;3.40;99.90
44817;DHT22;30529;53.570;9.964;2023-01-28T01:11:09;3.40;99.90
44817;DHT22;30529;53.570;9.964;2023-01-28T01:13:36;3.40;99.90
44817;DHT22;30529;53.570;9.964;2023-01-28T01:16:03;3.40;99.90
44817;DHT22;30529;53.570;9.964;2023-01-28T01:18:29;3.40;99.90
44817;DHT22;30529;53.570;9.964;2023-01-28T01:20:56;3.50;99.90
44817;DHT22;30529;53.570;9.964;2023-01-28T01:23:29;3.50;99.90
44817;DHT22;30529;53.570;9.964;2023-01-28T01:25:55;3.50;99.90
44817;DHT22;30529;53.570;9.964;2023-01-28T01:28:22;3.50;99.90
44817;DHT22;30529;53.570;9.964;2023-01-28T01:30:48;3.50;99.90
44817;DHT22;30529;53.570;9.964;2023-01-28T01:33:15;3.50;99.90
44817;DHT22;30529;53.570;9.964;2023-01-28T01:35:41;3.50;99.90
44817;DHT22;30529;53.570;9.964;2023-01-28T01:38:07;3.60;99.90
44817;DHT22;30529;53.570;9.964;2023-01-28T01:40:33;3.60;99.90
44817;DHT22;30529;53.570;9.964;2023-01-28T01:42:59;3.60;99.90
44817;DHT22;30529;53.570;9.964;2023-01-28T01:45:27;3.60;99.90
44817;DHT22;30529;53.570;9.964;2023-01-28T01:50:33;3.40;99.90
44817;DHT22;30529;53.570;9.964;2023-01-28T01:53:07;3.40;99.90
44817;DHT22;30529;53.570;9.964;2023-01-28T01:55:34;3.40;99.90
44817;DHT22;30529;53.570;9.964;2023-01-28T01:58:04;3.50;99.90
44817;DHT22;30529;53.570;9.964;2023-01-28T02:00:32;3.40;99.90
44817;DHT22;30529;53.570;9.964;2023-01-28T02:02:58;3.40;99.90
44817;DHT22;30529;53.570;9.964;2023-01-28T02:05:25;3.40;99.90
44817;DHT22;30529;53.570;9.964;2023-01-28T02:07:53;3.40;99.90
44817;DHT22;30529;53.570;9.964;2023-01-28T02:10:21;3.40;99.90
44817;DHT22;30529;53.570;9.964;2023-01-28T02:12:52;3.40;99.90
44817;DHT22;30529;53.570;9.964;2023-01-28T02:15:22;3.30;99.90
44817;DHT22;30529;53.570;9.964;2023-01-28T02:17:50;3.40;99.90
44817;DHT22;30529;53.570;9.964;2023-01-28T02:22:54;3.30;99.90
44817;DHT22;30529;53.570;9.964;2023-01-28T02:28:19;3.40;99.90
44817;DHT22;30529;53.570;9.964;2023-01-28T02:33:44;3.40;99.90
44817;DHT22;30529;53.570;9.964;2023-01-28T02:39:13;3.40;99.90
44817;DHT22;30529;53.570;9.964;2023-01-28T02:41:46;3.40;99.90
44817;DHT22;30529;53.570;9.964;2023-01-28T02:44:13;3.40;99.90
44817;DHT22;30529;53.570;9.964;2023-01-28T02:46:39;3.40;99.90
44817;DHT22;30529;53.570;9.964;2023-01-28T02:49:34;3.40;99.90
44817;DHT22;30529;53.570;9.964;2023-01-28T02:52:24;3.40;99.90
44817;DHT22;30529;53.570;9.964;2023-01-28T02:58:12;3.40;99.90
44817;DHT22;30529;53.570;9.964;2023-01-28T03:00:55;3.40;99.90
44817;DHT22;30529;53.570;9.964;2023-01-28T03:03:34;3.40;99.90
44817;DHT22;30529;53.570;9.964;2023-01-28T03:06:07;3.40;99.90
44817;DHT22;30529;53.570;9.964;2023-01-28T03:08:53;3.40;99.90
44817;DHT22;30529;53.570;9.964;2023-01-28T03:11:43;3.40;99.90
44817;DHT22;30529;53.570;9.964;2023-01-28T03:14:32;3.40;99.90
44817;DHT22;30529;53.570;9.964;2023-01-28T03:20:11;3.40;99.90
44817;DHT22;30529;53.570;9.964;2023-01-28T03:22:58;3.30;99.90
44817;DHT22;30529;53.570;9.964;2023-01-28T03:25:47;3.40;99.90
44817;DHT22;30529;53.570;9.964;2023-01-28T03:28:33;3.40;99.90
44817;DHT22;30529;53.570;9.964;2023-01-28T03:31:19;3.40;99.90
44817;DHT22;30529;53.570;9.964;2023-01-28T03:34:07;3.40;99.90
44817;DHT22;30529;53.570;9.964;2023-01-28T03:36:54;3.40;99.90
44817;DHT22;30529;53.570;9.964;2023-01-28T03:39:26;3.40;99.90
44817;DHT22;30529;53.570;9.964;2023-01-28T03:42:03;3.40;99.90
44817;DHT22;30529;53.570;9.964;2023-01-28T03:44:30;3.40;99.90
44817;DHT22;30529;53.570;9.964;2023-01-28T03:47:16;3.40;99.90
44817;DHT22;30529;53.570;9.964;2023-01-28T03:49:44;3.40;99.90
44817;DHT22;30529;53.570;9.964;2023-01-28T03:52:11;3.30;99.90
44817;DHT22;30529;53.570;9.964;2023-01-28T03:54:38;3.30;99.90
44817;DHT22;30529;53.570;9.964;2023-01-28T03:57:04;3.30;99.90
44817;DHT22;30529;53.570;9.964;2023-01-28T03:59:31;3.20;99.90
44817;DHT22;30529;53.570;9.964;2023-01-28T04:01:58;3.20;99.90
44817;DHT22;30529;53.570;9.964;2023-01-28T04:04:24;3.10;99.90
44817;DHT22;30529;53.570;9.964;2023-01-28T04:06:51;3.10;99.90
44817;DHT22;30529;53.570;9.964;2023-01-28T04:09:19;3.10;99.90
44817;DHT22;30529;53.570;9.964;2023-01-28T04:11:45;3.00;99.90
44817;DHT22;30529;53.570;9.964;2023-01-28T04:14:11;3.00;99.90
44817;DHT22;30529;53.570;9.964;2023-01-28T04:16:37;3.00;99.90
44817;DHT22;30529;53.570;9.964;2023-01-28T04:19:03;3.00;99.90
44817;DHT22;30529;53.570;9.964;2023-01-28T04:21:29;2.90;99.90
44817;DHT22;30529;53.570;9.964;2023-01-28T04:23:55;2.90;99.90
44817;DHT22;30529;53.570;9.964;2023-01-28T04:26:21;2.90;99.90
44817;DHT22;30529;53.570;9.964;2023-01-28T04:28:47;2.80;99.90
44817;DHT22;30529;53.570;9.964;2023-01-28T04:31:13;2.70;99.90
44817;DHT22;30529;53.570;9.964;2023-01-28T04:33:39;2.70;99.90
44817;DHT22;30529;53.570;9.964;2023-01-28T04:36:05;2.70;99.90
44817;DHT22;30529;53.570;9.964;2023-01-28T04:38:31;2.70;99.90
44817;DHT22;30529;53.570;9.964;2023-01-28T04:40:57;2.70;99.90
44817;DHT22;30529;53.570;9.964;2023-01-28T04:43:23;2.60;99.90
44817;DHT22;30529;53.570;9.964;2023-01-28T04:45:49;2.70;99.90
44817;DHT22;30529;53.570;9.964;2023-01-28T04:48:15;2.70;99.90
44817;DHT22;30529;53.570;9.964;2023-01-28T04:50:43;2.70;99.90
44817;DHT22;30529;53.570;9.964;2023-01-28T04:53:09;2.70;99.90
44817;DHT22;30529;53.570;9.964;2023-01-28T04:55:35;2.60;99.90
44817;DHT22;30529;53.570;9.964;2023-01-28T04:58:01;2.60;99.90
44817;DHT22;30529;53.570;9.964;2023-01-28T05:00:28;2.70;99.90
44817;DHT22;30529;53.570;9.964;2023-01-28T05:02:54;2.70;99.90
44817;DHT22;30529;53.570;9.964;2023-01-28T05:05:20;2.60;99.90
44817;DHT22;30529;53.570;9.964;2023-01-28T05:07:57;2.60;99.90
44817;DHT22;30529;53.570;9.964;2023-01-28T05:10:24;2.60;99.90
44817;DHT22;30529;53.570;9.964;2023-01-28T05:12:50;2.60;99.90
44817;DHT22;30529;53.570;9.964;2023-01-28T05:15:17;2.50;99.90
44817;DHT22;30529;53.570;9.964;2023-01-28T05:17:44;2.50;99.90
44817;DHT22;30529;53.570;9.964;2023-01-28T05:20:14;2.40;99.90
44817;DHT22;30529;53.570;9.964;2023-01-28T05:22:40;2.40;99.90
44817;DHT22;30529;53.570;9.964;2023-01-28T05:25:07;2.40;99.90
44817;DHT22;30529;53.570;9.964;2023-01-28T05:27:33;2.30;99.90
44817;DHT22;30529;53.570;9.964;2023-01-28T05:29:59;2.30;99.90
44817;DHT22;30529;53.570;9.964;2023-01-28T05:32:25;2.30;99.90
44817;DHT22;30529;53.570;9.964;2023-01-28T05:34:52;2.20;99.90
44817;DHT22;30529;53.570;9.964;2023-01-28T05:37:17;2.20;99.90
44817;DHT22;30529;53.570;9.964;2023-01-28T05:39:43;2.20;99.90
44817;DHT22;30529;53.570;9.964;2023-01-28T05:42:09;2.20;99.90
44817;DHT22;30529;53.570;9.964;2023-01-28T05:44:35;2.10;99.90
44817;DHT22;30529;53.570;9.964;2023-01-28T05:47:03;2.10;99.90
44817;DHT22;30529;53.570;9.964;2023-01-28T05:49:28;2.00;99.90
44817;DHT22;30529;53.570;9.964;2023-01-28T05:51:54;2.00;99.90
44817;DHT22;30529;53.570;9.964;2023-01-28T05:54:21;2.00;99.90
44817;DHT22;30529;53.570;9.964;2023-01-28T05:56:47;2.00;99.90
44817;DHT22;30529;53.570;9.964;2023-01-28T05:59:13;1.90;99.90
44817;DHT22;30529;53.570;9.964;2023-01-28T06:01:39;1.90;99.90
44817;DHT22;30529;53.570;9.964;2023-01-28T06:04:06;1.90;99.90
44817;DHT22;30529;53.570;9.964;2023-01-28T06:06:32;1.90;99.90
44817;DHT22;30529;53.570;9.964;2023-01-28T06:08:58;1.90;99.90
44817;DHT22;30529;53.570;9.964;2023-01-28T06:11:24;1.90;99.90
44817;DHT22;30529;53.570;9.964;2023-01-28T06:13:50;1.90;99.90
44817;DHT22;30529;53.570;9.964;2023-01-28T06:16:16;1.90;99.90
44817;DHT22;30529;53.570;9.964;2023-01-28T06:18:42;1.90;99.90
44817;DHT22;30529;53.570;9.964;2023-01-28T06:21:09;2.00;99.90
44817;DHT22;30529;53.570;9.964;2023-01-28T06:23:35;1.90;99.90
44817;DHT22;30529;53.570;9.964;2023-01-28T06:26:01;1.90;99.90
44817;DHT22;30529;53.570;9.964;2023-01-28T06:28:27;1.90;99.90
44817;DHT22;30529;53.570;9.964;2023-01-28T06:30:54;1.90;99.90
44817;DHT22;30529;53.570;9.964;2023-01-28T06:33:20;1.90;99.90
44817;DHT22;30529;53.570;9.964;2023-01-28T06:35:47;1.90;99.90
44817;DHT22;30529;53.570;9.964;2023-01-28T06:38:13;1.90;99.90
44817;DHT22;30529;53.570;9.964;2023-01-28T06:40:39;1.80;99.90
44817;DHT22;30529;53.570;9.964;2023-01-28T06:43:06;1.80;99.90
44817;DHT22;30529;53.570;9.964;2023-01-28T06:45:32;1.80;99.90
44817;DHT22;30529;53.570;9.964;2023-01-28T06:47:58;1.70;99.90
44817;DHT22;30529;53.570;9.964;2023-01-28T06:50:25;1.70;99.90
44817;DHT22;30529;53.570;9.964;2023-01-28T06:52:51;1.70;99.90
44817;DHT22;30529;53.570;9.964;2023-01-28T06:55:17;1.70;99.90
44817;DHT22;30529;53.570;9.964;2023-01-28T06:57:43;1.70;99.90
44817;DHT22;30529;53.570;9.964;2023-01-28T07:00:12;1.70;99.90
44817;DHT22;30529;53.570;9.964;2023-01-28T07:02:40;1.60;99.90
44817;DHT22;30529;53.570;9.964;2023-01-28T07:05:07;1.60;99.90
44817;DHT22;30529;53.570;9.964;2023-01-28T07:07:33;1.60;99.90
44817;DHT22;30529;53.570;9.964;2023-01-28T07:09:59;1.60;99.90
44817;DHT22;30529;53.570;9.964;2023-01-28T07:12:25;1.50;99.90
44817;DHT22;30529;53.570;9.964;2023-01-28T07:14:51;1.50;99.90
44817;DHT22;30529;53.570;9.964;2023-01-28T07:17:17;1.50;99.90
44817;DHT22;30529;53.570;9.964;2023-01-28T07:19:43;1.50;99.90
44817;DHT22;30529;53.570;9.964;2023-01-28T07:22:08;1.40;99.90
44817;DHT22;30529;53.570;9.964;2023-01-28T07:24:34;1.40;99.90
44817;DHT22;30529;53.570;9.964;2023-01-28T07:27:00;1.40;99.90
44817;DHT22;30529;53.570;9.964;2023-01-28T07:29:26;1.40;99.90
44817;DHT22;30529;53.570;9.964;2023-01-28T07:31:52;1.30;99.90
44817;DHT22;30529;53.570;9.964;2023-01-28T07:34:18;1.30;99.90
44817;DHT22;30529;53.570;9.964;2023-01-28T07:36:44;1.30;99.90
44817;DHT22;30529;53.570;9.964;2023-01-28T07:39:10;1.30;99.90
44817;DHT22;30529;53.570;9.964;2023-01-28T07:41:36;1.30;99.90
44817;DHT22;30529;53.570;9.964;2023-01-28T07:44:02;1.30;99.90
44817;DHT22;30529;53.570;9.964;2023-01-28T07:46:31;1.30;99.90
44817;DHT22;30529;53.570;9.964;2023-01-28T07:48:57;1.30;99.90
44817;DHT22;30529;53.570;9.964;2023-01-28T07:51:23;1.30;99.90
44817;DHT22;30529;53.570;9.964;2023-01-28T07:53:49;1.20;99.90
44817;DHT22;30529;53.570;9.964;2023-01-28T07:56:16;1.20;99.90
44817;DHT22;30529;53.570;9.964;2023-01-28T07:58:41;1.20;99.90
44817;DHT22;30529;53.570;9.964;2023-01-28T08:01:07;1.20;99.90
44817;DHT22;30529;53.570;9.964;2023-01-28T08:03:33;1.20;99.90
44817;DHT22;30529;53.570;9.964;2023-01-28T08:05:59;1.20;99.90
44817;DHT22;30529;53.570;9.964;2023-01-28T08:08:26;1.20;99.90
44817;DHT22;30529;53.570;9.964;2023-01-28T08:10:52;1.20;99.90
44817;DHT22;30529;53.570;9.964;2023-01-28T08:13:18;1.20;99.90
44817;DHT22;30529;53.570;9.964;2023-01-28T08:15:45;1.20;99.90
44817;DHT22;30529;53.570;9.964;2023-01-28T08:18:13;1.20;99.90
44817;DHT22;30529;53.570;9.964;2023-01-28T08:20:39;1.20;99.90
44817;DHT22;30529;53.570;9.964;2023-01-28T08:23:07;1.20;99.90
44817;DHT22;30529;53.570;9.964;2023-01-28T08:25:34;1.20;99.90
44817;DHT22;30529;53.570;9.964;2023-01-28T08:28:01;1.20;99.90
44817;DHT22;30529;53.570;9.964;2023-01-28T08:30:27;1.30;99.90
44817;DHT22;30529;53.570;9.964;2023-01-28T08:32:57;1.30;99.90
44817;DHT22;30529;53.570;9.964;2023-01-28T08:35:27;1.30;99.90
44817;DHT22;30529;53.570;9.964;2023-01-28T08:37:57;1.30;99.90
44817;DHT22;30529;53.570;9.964;2023-01-28T08:40:23;1.30;99.90
44817;DHT22;30529;53.570;9.964;2023-01-28T08:42:50;1.30;99.90
44817;DHT22;30529;53.570;9.964;2023-01-28T08:45:20;1.30;99.90
44817;DHT22;30529;53.570;9.964;2023-01-28T08:47:48;1.40;99.90
44817;DHT22;30529;53.570;9.964;2023-01-28T08:50:15;1.50;99.90
44817;DHT22;30529;53.570;9.964;2023-01-28T08:52:42;1.50;99.90
44817;DHT22;30529;53.570;9.964;2023-01-28T08:55:10;1.50;99.90
44817;DHT22;30529;53.570;9.964;2023-01-28T08:57:36;1.60;99.90
44817;DHT22;30529;53.570;9.964;2023-01-28T09:00:04;1.60;99.90
44817;DHT22;30529;53.570;9.964;2023-01-28T09:02:30;1.60;99.90
44817;DHT22;30529;53.570;9.964;2023-01-28T09:04:56;1.70;99.90
44817;DHT22;30529;53.570;9.964;2023-01-28T09:07:22;1.80;99.90
44817;DHT22;30529;53.570;9.964;2023-01-28T09:09:48;1.90;99.90
44817;DHT22;30529;53.570;9.964;2023-01-28T09:12:14;1.90;99.90
44817;DHT22;30529;53.570;9.964;2023-01-28T09:14:41;2.00;99.90
44817;DHT22;30529;53.570;9.964;2023-01-28T09:17:07;2.00;99.90
44817;DHT22;30529;53.570;9.964;2023-01-28T09:19:33;2.10;99.90
44817;DHT22;30529;53.570;9.964;2023-01-28T09:22:05;2.20;99.90
44817;DHT22;30529;53.570;9.964;2023-01-28T09:24:31;2.20;99.90
44817;DHT22;30529;53.570;9.964;2023-01-28T09:26:57;2.20;99.90
44817;DHT22;30529;53.570;9.964;2023-01-28T09:29:23;2.20;99.90
44817;DHT22;30529;53.570;9.964;2023-01-28T09:31:49;2.20;99.90
44817;DHT22;30529;53.570;9.964;2023-01-28T09:34:15;2.20;99.90
44817;DHT22;30529;53.570;9.964;2023-01-28T09:36:41;2.10;99.90
44817;DHT22;30529;53.570;9.964;2023-01-28T09:39:07;2.10;99.90
44817;DHT22;30529;53.570;9.964;2023-01-28T09:41:51;2.10;99.90
44817;DHT22;30529;53.570;9.964;2023-01-28T09:44:43;2.10;99.90
44817;DHT22;30529;53.570;9.964;2023-01-28T09:47:25;2.10;99.90
44817;DHT22;30529;53.570;9.964;2023-01-28T09:53:42;2.30;99.90
44817;DHT22;30529;53.570;9.964;2023-01-28T09:56:18;2.40;99.90
44817;DHT22;30529;53.570;9.964;2023-01-28T09:58:47;2.60;99.90
44817;DHT22;30529;53.570;9.964;2023-01-28T10:01:38;2.60;99.90
44817;DHT22;30529;53.570;9.964;2023-01-28T10:04:17;2.80;99.90
44817;DHT22;30529;53.570;9.964;2023-01-28T10:09:47;2.80;99.90
44817;DHT22;30529;53.570;9.964;2023-01-28T10:12:42;2.80;99.90
44817;DHT22;30529;53.570;9.964;2023-01-28T10:15:26;2.90;99.90
44817;DHT22;30529;53.570;9.964;2023-01-28T10:17:58;2.90;99.90
44817;DHT22;30529;53.570;9.964;2023-01-28T10:20:32;2.90;99.90
44817;DHT22;30529;53.570;9.964;2023-01-28T10:23:11;3.00;99.90
44817;DHT22;30529;53.570;9.964;2023-01-28T10:25:42;3.00;99.90
44817;DHT22;30529;53.570;9.964;2023-01-28T10:30:45;3.10;99.90
44817;DHT22;30529;53.570;9.964;2023-01-28T10:33:32;3.10;99.90
44817;DHT22;30529;53.570;9.964;2023-01-28T10:36:01;3.10;99.90
44817;DHT22;30529;53.570;9.964;2023-01-28T10:38:30;3.10;99.90
44817;DHT22;30529;53.570;9.964;2023-01-28T10:41:00;3.20;99.90
44817;DHT22;30529;53.570;9.964;2023-01-28T10:43:31;3.20;99.90
44817;DHT22;30529;53.570;9.964;2023-01-28T10:48:32;3.30;99.90
44817;DHT22;30529;53.570;9.964;2023-01-28T10:51:01;3.30;99.90
44817;DHT22;30529;53.570;9.964;2023-01-28T10:53:34;3.40;99.90
44817;DHT22;30529;53.570;9.964;2023-01-28T10:56:02;3.30;99.90
44817;DHT22;30529;53.570;9.964;2023-01-28T10:58:33;3.20;99.90
44817;DHT22;30529;53.570;9.964;2023-01-28T11:01:01;3.10;99.90
44817;DHT22;30529;53.570;9.964;2023-01-28T11:03:28;3.10;99.90
44817;DHT22;30529;53.570;9.964;2023-01-28T11:05:56;3.10;99.90
44817;DHT22;30529;53.570;9.964;2023-01-28T11:08:28;3.10;99.90
44817;DHT22;30529;53.570;9.964;2023-01-28T11:10:55;3.00;99.90
44817;DHT22;30529;53.570;9.964;2023-01-28T11:13:27;3.00;99.90
44817;DHT22;30529;53.570;9.964;2023-01-28T11:16:00;3.10;99.90
44817;DHT22;30529;53.570;9.964;2023-01-28T11:18:31;3.10;99.90
44817;DHT22;30529;53.570;9.964;2023-01-28T11:21:00;3.10;99.90
44817;DHT22;30529;53.570;9.964;2023-01-28T11:23:31;3.10;99.90
44817;DHT22;30529;53.570;9.964;2023-01-28T11:26:07;3.20;99.90
44817;DHT22;30529;53.570;9.964;2023-01-28T11:28:34;3.30;99.90
44817;DHT22;30529;53.570;9.964;2023-01-28T11:31:04;3.50;99.90
44817;DHT22;30529;53.570;9.964;2023-01-28T11:33:35;3.60;99.90
44817;DHT22;30529;53.570;9.964;2023-01-28T11:41:35;3.70;99.90
44817;DHT22;30529;53.570;9.964;2023-01-28T11:44:25;3.70;99.90
44817;DHT22;30529;53.570;9.964;2023-01-28T11:47:44;3.70;99.90
44817;DHT22;30529;53.570;9.964;2023-01-28T11:53:16;3.50;99.90
44817;DHT22;30529;53.570;9.964;2023-01-28T11:56:05;3.40;99.90
44817;DHT22;30529;53.570;9.964;2023-01-28T11:58:54;3.40;99.90
44817;DHT22;30529;53.570;9.964;2023-01-28T12:04:42;3.30;99.90
44817;DHT22;30529;53.570;9.964;2023-01-28T12:07:22;3.30;99.90
44817;DHT22;30529;53.570;9.964;2023-01-28T12:09:56;3.30;99.90
44817;DHT22;30529;53.570;9.964;2023-01-28T12:23:30;3.50;99.90
44817;DHT22;30529;53.570;9.964;2023-01-28T12:29:13;3.90;99.90
44817;DHT22;30529;53.570;9.964;2023-01-28T12:32:01;4.00;99.90
44817;DHT22;30529;53.570;9.964;2023-01-28T12:37:19;4.00;99.90
44817;DHT22;30529;53.570;9.964;2023-01-28T12:40:02;4.00;99.90
44817;DHT22;30529;53.570;9.964;2023-01-28T12:45:20;4.10;99.90
44817;DHT22;30529;53.570;9.964;2023-01-28T12:48:01;4.10;99.90
44817;DHT22;30529;53.570;9.964;2023-01-28T12:50:38;4.10;99.90
44817;DHT22;30529;53.570;9.964;2023-01-28T12:53:27;4.20;99.90
44817;DHT22;30529;53.570;9.964;2023-01-28T12:56:02;4.30;99.90
44817;DHT22;30529;53.570;9.964;2023-01-28T13:01:36;4.30;99.90
44817;DHT22;30529;53.570;9.964;2023-01-28T13:07:05;4.20;99.90
44817;DHT22;30529;53.570;9.964;2023-01-28T13:09:35;4.20;99.90
44817;DHT22;30529;53.570;9.964;2023-01-28T13:12:04;4.20;99.90
44817;DHT22;30529;53.570;9.964;2023-01-28T13:14:32;4.10;99.90
44817;DHT22;30529;53.570;9.964;2023-01-28T13:17:10;4.00;99.90
44817;DHT22;30529;53.570;9.964;2023-01-28T13:19:40;3.90;99.90
44817;DHT22;30529;53.570;9.964;2023-01-28T13:22:11;3.80;99.90
44817;DHT22;30529;53.570;9.964;2023-01-28T13:24:38;3.80;99.90
44817;DHT22;30529;53.570;9.964;2023-01-28T13:27:12;3.60;99.90
44817;DHT22;30529;53.570;9.964;2023-01-28T13:29:47;3.60;99.90
44817;DHT22;30529;53.570;9.964;2023-01-28T13:32:30;3.50;99.90
44817;DHT22;30529;53.570;9.964;2023-01-28T13:35:00;3.50;99.90
44817;DHT22;30529;53.570;9.964;2023-01-28T13:37:43;3.50;99.90
44817;DHT22;30529;53.570;9.964;2023-01-28T13:42:39;3.60;99.90
44817;DHT22;30529;53.570;9.964;2023-01-28T13:45:20;3.70;99.90
44817;DHT22;30529;53.570;9.964;2023-01-28T13:47:51;3.80;99.90
44817;DHT22;30529;53.570;9.964;2023-01-28T13:50:23;3.90;99.90
44817;DHT22;30529;53.570;9.964;2023-01-28T13:52:55;4.00;99.90
44817;DHT22;30529;53.570;9.964;2023-01-28T13:55:35;4.10;99.90
44817;DHT22;30529;53.570;9.964;2023-01-28T14:01:09;4.20;99.90
44817;DHT22;30529;53.570;9.964;2023-01-28T14:06:25;4.10;99.90
44817;DHT22;30529;53.570;9.964;2023-01-28T14:14:37;4.20;99.90
44817;DHT22;30529;53.570;9.964;2023-01-28T14:17:41;4.10;99.90
44817;DHT22;30529;53.570;9.964;2023-01-28T14:20:19;4.10;99.90
44817;DHT22;30529;53.570;9.964;2023-01-28T14:22:47;4.10;99.90
44817;DHT22;30529;53.570;9.964;2023-01-28T14:25:42;4.10;99.90
44817;DHT22;30529;53.570;9.964;2023-01-28T14:28:52;4.10;99.90
44817;DHT22;30529;53.570;9.964;2023-01-28T14:31:35;4.10;99.90
44817;DHT22;30529;53.570;9.964;2023-01-28T14:36:55;4.00;99.90
44817;DHT22;30529;53.570;9.964;2023-01-28T14:39:27;4.00;99.90
44817;DHT22;30529;53.570;9.964;2023-01-28T14:41:55;4.00;99.90
44817;DHT22;30529;53.570;9.964;2023-01-28T14:49:42;4.10;99.90
44817;DHT22;30529;53.570;9.964;2023-01-28T14:52:42;4.10;99.90
44817;DHT22;30529;53.570;9.964;2023-01-28T14:55:47;4.10;99.90
44817;DHT22;30529;53.570;9.964;2023-01-28T14:58:24;4.10;99.90
44817;DHT22;30529;53.570;9.964;2023-01-28T15:00:53;4.00;99.90
44817;DHT22;30529;53.570;9.964;2023-01-28T15:03:20;4.00;99.90
44817;DHT22;30529;53.570;9.964;2023-01-28T15:05:46;4.00;99.90
44817;DHT22;30529;53.570;9.964;2023-01-28T15:08:22;4.00;99.90
44817;DHT22;30529;53.570;9.964;2023-01-28T15:10:50;4.00;99.90
44817;DHT22;30529;53.570;9.964;2023-01-28T15:13:24;4.00;99.90
44817;DHT22;30529;53.570;9.964;2023-01-28T15:15:51;3.90;99.90
44817;DHT22;30529;53.570;9.964;2023-01-28T15:18:30;3.90;99.90
44817;DHT22;30529;53.570;9.964;2023-01-28T15:20:57;3.90;99.90
44817;DHT22;30529;53.570;9.964;2023-01-28T15:23:28;3.90;99.90
44817;DHT22;30529;53.570;9.964;2023-01-28T15:25:56;3.90;99.90
44817;DHT22;30529;53.570;9.964;2023-01-28T15:28:29;3.90;99.90
44817;DHT22;30529;53.570;9.964;2023-01-28T15:30:56;3.90;99.90
44817;DHT22;30529;53.570;9.964;2023-01-28T15:33:23;3.90;99.90
44817;DHT22;30529;53.570;9.964;2023-01-28T15:35:51;3.80;99.90
44817;DHT22;30529;53.570;9.964;2023-01-28T15:38:17;3.80;99.90
44817;DHT22;30529;53.570;9.964;2023-01-28T15:40:55;3.80;99.90
44817;DHT22;30529;53.570;9.964;2023-01-28T15:43:26;3.80;99.90
44817;DHT22;30529;53.570;9.964;2023-01-28T15:45:55;3.70;99.90
44817;DHT22;30529;53.570;9.964;2023-01-28T15:48:35;3.60;99.90
44817;DHT22;30529;53.570;9.964;2023-01-28T15:51:19;3.50;99.90
44817;DHT22;30529;53.570;9.964;2023-01-28T15:53:48;3.50;99.90
44817;DHT22;30529;53.570;9.964;2023-01-28T15:56:15;3.60;99.90
44817;DHT22;30529;53.570;9.964;2023-01-28T15:58:48;3.70;99.90
44817;DHT22;30529;53.570;9.964;2023-01-28T16:01:18;3.70;99.90
44817;DHT22;30529;53.570;9.964;2023-01-28T16:03:46;3.70;99.90
44817;DHT22;30529;53.570;9.964;2023-01-28T16:06:19;3.70;99.90
44817;DHT22;30529;53.570;9.964;2023-01-28T16:08:56;3.80;99.90
44817;DHT22;30529;53.570;9.964;2023-01-28T16:11:37;3.70;99.90
44817;DHT22;30529;53.570;9.964;2023-01-28T16:14:27;3.70;99.90
44817;DHT22;30529;53.570;9.964;2023-01-28T16:16:55;3.70;99.90
44817;DHT22;30529;53.570;9.964;2023-01-28T16:19:36;3.70;99.90
44817;DHT22;30529;53.570;9.964;2023-01-28T16:22:04;3.60;99.90
44817;DHT22;30529;53.570;9.964;2023-01-28T16:24:33;3.60;99.90
44817;DHT22;30529;53.570;9.964;2023-01-28T16:27:03;3.60;99.90
44817;DHT22;30529;53.570;9.964;2023-01-28T16:29:30;3.70;99.90
44817;DHT22;30529;53.570;9.964;2023-01-28T16:31:57;3.70;99.90
44817;DHT22;30529;53.570;9.964;2023-01-28T16:34:28;3.70;99.90
44817;DHT22;30529;53.570;9.964;2023-01-28T16:36:58;3.80;99.90
44817;DHT22;30529;53.570;9.964;2023-01-28T16:39:25;3.70;99.90
44817;DHT22;30529;53.570;9.964;2023-01-28T16:41:51;3.70;99.90
44817;DHT22;30529;53.570;9.964;2023-01-28T16:44:18;3.70;99.90
44817;DHT22;30529;53.570;9.964;2023-01-28T16:46:44;3.70;99.90
44817;DHT22;30529;53.570;9.964;2023-01-28T16:49:10;3.70;99.90
44817;DHT22;30529;53.570;9.964;2023-01-28T16:51:38;3.60;99.90
44817;DHT22;30529;53.570;9.964;2023-01-28T16:54:10;3.60;99.90
44817;DHT22;30529;53.570;9.964;2023-01-28T16:59:10;3.60;99.90
44817;DHT22;30529;53.570;9.964;2023-01-28T17:01:37;3.60;99.90
44817;DHT22;30529;53.570;9.964;2023-01-28T17:04:03;3.60;99.90
44817;DHT22;30529;53.570;9.964;2023-01-28T17:06:35;3.70;99.90
44817;DHT22;30529;53.570;9.964;2023-01-28T17:09:05;3.70;99.90
44817;DHT22;30529;53.570;9.964;2023-01-28T17:11:32;3.70;99.90
44817;DHT22;30529;53.570;9.964;2023-01-28T17:13:58;3.60;99.90
44817;DHT22;30529;53.570;9.964;2023-01-28T17:16:32;3.60;99.90
44817;DHT22;30529;53.570;9.964;2023-01-28T17:18:58;3.60;99.90
44817;DHT22;30529;53.570;9.964;2023-01-28T17:21:24;3.50;99.90
44817;DHT22;30529;53.570;9.964;2023-01-28T17:23:50;3.50;99.90
44817;DHT22;30529;53.570;9.964;2023-01-28T17:26:16;3.40;99.90
44817;DHT22;30529;53.570;9.964;2023-01-28T17:28:42;3.40;99.90
44817;DHT22;30529;53.570;9.964;2023-01-28T17:31:11;3.40;99.90
44817;DHT22;30529;53.570;9.964;2023-01-28T17:33:38;3.40;99.90
44817;DHT22;30529;53.570;9.964;2023-01-28T17:36:05;3.50;99.90
44817;DHT22;30529;53.570;9.964;2023-01-28T17:38:31;3.50;99.90
44817;DHT22;30529;53.570;9.964;2023-01-28T17:41:05;3.50;99.90